Abralaite, Argentina
Current Conditions -  °F | °C
As of 6:00 AM on Friday 19 Dec 2014 (Local Time) from SASJ Reporting Station
Haze Haze  
Wind Chill: 17°   Ceiling: 20000
Heat Index: 17°   Visibility: 3mi
Dew Point: 16°   Wind: 6mph
Humidity: 94%   Direction: 270°W
Pressure: 29.85"   Gusts: NA
Location:  23.2°S, 65.74°W
Report Text: SASJ 190900Z 27005KT 5000 BR FEW020 BKN20017/16 Q1011
Loading
Personal Weather Stations






























Interactive Weather Map New forecast layout! Learn more

10-Day Weather Forecast

Advertisements
Track Severe Weather on mobile